sensor_id;sensor_type;location;lat;lon;timestamp;P1;durP1;ratioP1;P2;durP2;ratioP2
66761;SDS011;53672;48.176;16.338;2023-08-24T00:01:13;10.00;;;7.50;;
66761;SDS011;53672;48.176;16.338;2023-08-24T00:06:13;12.48;;;7.88;;
66761;SDS011;53672;48.176;16.338;2023-08-24T00:11:14;11.57;;;7.80;;
66761;SDS011;53672;48.176;16.338;2023-08-24T00:16:16;11.73;;;7.73;;
66761;SDS011;53672;48.176;16.338;2023-08-24T00:21:16;11.17;;;8.37;;
66761;SDS011;53672;48.176;16.338;2023-08-24T00:26:17;13.77;;;8.27;;
66761;SDS011;53672;48.176;16.338;2023-08-24T00:31:19;13.48;;;8.18;;
66761;SDS011;53672;48.176;16.338;2023-08-24T00:36:19;12.60;;;8.00;;
66761;SDS011;53672;48.176;16.338;2023-08-24T00:41:19;10.83;;;8.20;;
66761;SDS011;53672;48.176;16.338;2023-08-24T00:46:21;13.90;;;8.13;;
66761;SDS011;53672;48.176;16.338;2023-08-24T00:51:22;13.60;;;8.75;;
66761;SDS011;53672;48.176;16.338;2023-08-24T00:56:23;10.90;;;7.82;;
66761;SDS011;53672;48.176;16.338;2023-08-24T01:01:25;11.27;;;8.50;;
66761;SDS011;53672;48.176;16.338;2023-08-24T01:06:26;13.07;;;8.35;;
66761;SDS011;53672;48.176;16.338;2023-08-24T01:11:29;11.50;;;8.10;;
66761;SDS011;53672;48.176;16.338;2023-08-24T01:16:37;10.20;;;7.73;;
66761;SDS011;53672;48.176;16.338;2023-08-24T01:21:43;14.07;;;8.25;;
66761;SDS011;53672;48.176;16.338;2023-08-24T01:26:45;11.77;;;8.33;;
66761;SDS011;53672;48.176;16.338;2023-08-24T01:31:48;10.85;;;7.82;;
66761;SDS011;53672;48.176;16.338;2023-08-24T01:36:48;12.67;;;7.63;;
66761;SDS011;53672;48.176;16.338;2023-08-24T01:41:51;10.95;;;7.90;;
66761;SDS011;53672;48.176;16.338;2023-08-24T01:46:53;13.33;;;8.13;;
66761;SDS011;53672;48.176;16.338;2023-08-24T01:51:54;12.32;;;8.07;;
66761;SDS011;53672;48.176;16.338;2023-08-24T01:56:56;11.43;;;8.20;;
66761;SDS011;53672;48.176;16.338;2023-08-24T02:01:57;11.43;;;8.23;;
66761;SDS011;53672;48.176;16.338;2023-08-24T02:06:57;11.13;;;8.17;;
66761;SDS011;53672;48.176;16.338;2023-08-24T02:11:59;14.27;;;8.30;;
66761;SDS011;53672;48.176;16.338;2023-08-24T02:17:00;11.88;;;8.13;;
66761;SDS011;53672;48.176;16.338;2023-08-24T02:22:00;10.40;;;7.90;;
66761;SDS011;53672;48.176;16.338;2023-08-24T02:27:02;12.70;;;8.17;;
66761;SDS011;53672;48.176;16.338;2023-08-24T02:32:03;11.23;;;7.88;;
66761;SDS011;53672;48.176;16.338;2023-08-24T02:37:03;11.93;;;8.00;;
66761;SDS011;53672;48.176;16.338;2023-08-24T02:42:06;11.07;;;8.03;;
66761;SDS011;53672;48.176;16.338;2023-08-24T02:47:06;11.20;;;8.00;;
66761;SDS011;53672;48.176;16.338;2023-08-24T02:52:07;10.83;;;8.57;;
66761;SDS011;53672;48.176;16.338;2023-08-24T02:57:08;11.40;;;8.53;;
66761;SDS011;53672;48.176;16.338;2023-08-24T03:02:09;11.05;;;8.40;;
66761;SDS011;53672;48.176;16.338;2023-08-24T03:07:09;11.10;;;8.00;;
66761;SDS011;53672;48.176;16.338;2023-08-24T03:12:11;12.00;;;8.10;;
66761;SDS011;53672;48.176;16.338;2023-08-24T03:17:12;12.07;;;8.30;;
66761;SDS011;53672;48.176;16.338;2023-08-24T03:22:12;11.57;;;8.15;;
66761;SDS011;53672;48.176;16.338;2023-08-24T03:27:14;15.90;;;9.18;;
66761;SDS011;53672;48.176;16.338;2023-08-24T03:32:14;11.87;;;9.03;;
66761;SDS011;53672;48.176;16.338;2023-08-24T03:37:15;13.07;;;9.13;;
66761;SDS011;53672;48.176;16.338;2023-08-24T03:42:17;13.57;;;8.60;;
66761;SDS011;53672;48.176;16.338;2023-08-24T03:47:17;13.10;;;9.23;;
66761;SDS011;53672;48.176;16.338;2023-08-24T03:52:18;12.80;;;8.60;;
66761;SDS011;53672;48.176;16.338;2023-08-24T03:57:19;12.03;;;9.40;;
66761;SDS011;53672;48.176;16.338;2023-08-24T04:02:20;14.98;;;9.10;;
66761;SDS011;53672;48.176;16.338;2023-08-24T04:07:20;15.57;;;9.37;;
66761;SDS011;53672;48.176;16.338;2023-08-24T04:12:22;13.50;;;8.90;;
66761;SDS011;53672;48.176;16.338;2023-08-24T04:17:23;12.90;;;8.93;;
66761;SDS011;53672;48.176;16.338;2023-08-24T04:22:23;14.20;;;9.27;;
66761;SDS011;53672;48.176;16.338;2023-08-24T04:27:25;12.95;;;9.15;;
66761;SDS011;53672;48.176;16.338;2023-08-24T04:32:26;12.90;;;8.80;;
66761;SDS011;53672;48.176;16.338;2023-08-24T04:37:27;15.00;;;8.88;;
66761;SDS011;53672;48.176;16.338;2023-08-24T04:42:28;11.87;;;9.53;;
66761;SDS011;53672;48.176;16.338;2023-08-24T04:47:29;15.27;;;9.23;;
66761;SDS011;53672;48.176;16.338;2023-08-24T04:52:29;12.95;;;9.40;;
66761;SDS011;53672;48.176;16.338;2023-08-24T04:57:31;13.88;;;9.02;;
66761;SDS011;53672;48.176;16.338;2023-08-24T05:02:32;12.10;;;8.90;;
66761;SDS011;53672;48.176;16.338;2023-08-24T05:07:32;12.80;;;8.60;;
66761;SDS011;53672;48.176;16.338;2023-08-24T05:12:34;12.20;;;8.70;;
66761;SDS011;53672;48.176;16.338;2023-08-24T05:17:34;12.60;;;8.70;;
66761;SDS011;53672;48.176;16.338;2023-08-24T05:22:35;12.20;;;8.23;;
66761;SDS011;53672;48.176;16.338;2023-08-24T05:27:37;14.13;;;9.03;;
66761;SDS011;53672;48.176;16.338;2023-08-24T05:32:37;12.55;;;8.55;;
66761;SDS011;53672;48.176;16.338;2023-08-24T05:37:38;10.87;;;7.70;;
66761;SDS011;53672;48.176;16.338;2023-08-24T05:42:40;11.27;;;7.90;;
66761;SDS011;53672;48.176;16.338;2023-08-24T05:47:40;11.45;;;8.65;;
66761;SDS011;53672;48.176;16.338;2023-08-24T05:52:41;10.77;;;7.78;;
66761;SDS011;53672;48.176;16.338;2023-08-24T05:57:42;11.60;;;7.60;;
66761;SDS011;53672;48.176;16.338;2023-08-24T06:02:43;12.17;;;8.23;;
66761;SDS011;53672;48.176;16.338;2023-08-24T06:07:44;11.95;;;7.63;;
66761;SDS011;53672;48.176;16.338;2023-08-24T06:12:45;12.50;;;8.70;;
66761;SDS011;53672;48.176;16.338;2023-08-24T06:17:46;12.37;;;8.63;;
66761;SDS011;53672;48.176;16.338;2023-08-24T06:22:46;15.17;;;10.87;;
66761;SDS011;53672;48.176;16.338;2023-08-24T06:27:48;15.88;;;10.15;;
66761;SDS011;53672;48.176;16.338;2023-08-24T06:32:49;14.88;;;10.00;;
66761;SDS011;53672;48.176;16.338;2023-08-24T06:37:49;14.67;;;9.80;;
66761;SDS011;53672;48.176;16.338;2023-08-24T06:42:51;12.90;;;9.13;;
66761;SDS011;53672;48.176;16.338;2023-08-24T06:47:51;12.75;;;8.55;;
66761;SDS011;53672;48.176;16.338;2023-08-24T06:52:52;11.37;;;8.93;;
66761;SDS011;53672;48.176;16.338;2023-08-24T06:57:54;14.87;;;9.77;;
66761;SDS011;53672;48.176;16.338;2023-08-24T07:02:54;15.75;;;9.65;;
66761;SDS011;53672;48.176;16.338;2023-08-24T07:07:55;14.67;;;9.30;;
66761;SDS011;53672;48.176;16.338;2023-08-24T07:12:57;17.20;;;10.77;;
66761;SDS011;53672;48.176;16.338;2023-08-24T07:17:57;13.07;;;10.07;;
66761;SDS011;53672;48.176;16.338;2023-08-24T07:22:57;14.13;;;9.20;;
66761;SDS011;53672;48.176;16.338;2023-08-24T07:27:59;11.43;;;8.05;;
66761;SDS011;53672;48.176;16.338;2023-08-24T07:33:00;14.67;;;9.70;;
66761;SDS011;53672;48.176;16.338;2023-08-24T07:38:01;13.98;;;9.82;;
66761;SDS011;53672;48.176;16.338;2023-08-24T07:43:03;13.53;;;9.73;;
66761;SDS011;53672;48.176;16.338;2023-08-24T07:48:04;14.15;;;8.98;;
66761;SDS011;53672;48.176;16.338;2023-08-24T07:53:05;12.32;;;8.73;;
66761;SDS011;53672;48.176;16.338;2023-08-24T07:58:07;12.50;;;8.53;;
66761;SDS011;53672;48.176;16.338;2023-08-24T08:03:07;15.57;;;9.10;;
66761;SDS011;53672;48.176;16.338;2023-08-24T08:08:08;12.60;;;8.97;;
66761;SDS011;53672;48.176;16.338;2023-08-24T08:13:09;12.17;;;9.20;;
66761;SDS011;53672;48.176;16.338;2023-08-24T08:18:10;14.63;;;8.65;;
66761;SDS011;53672;48.176;16.338;2023-08-24T08:23:10;11.83;;;8.10;;
66761;SDS011;53672;48.176;16.338;2023-08-24T08:28:12;11.73;;;9.00;;
66761;SDS011;53672;48.176;16.338;2023-08-24T08:33:13;11.67;;;7.97;;
66761;SDS011;53672;48.176;16.338;2023-08-24T08:38:13;14.32;;;8.40;;
66761;SDS011;53672;48.176;16.338;2023-08-24T08:43:15;13.48;;;8.73;;
66761;SDS011;53672;48.176;16.338;2023-08-24T08:48:16;14.47;;;8.50;;
66761;SDS011;53672;48.176;16.338;2023-08-24T08:53:20;11.55;;;8.80;;
66761;SDS011;53672;48.176;16.338;2023-08-24T08:58:23;14.77;;;8.87;;
66761;SDS011;53672;48.176;16.338;2023-08-24T09:03:25;12.68;;;7.88;;
66761;SDS011;53672;48.176;16.338;2023-08-24T09:08:28;11.70;;;7.70;;
66761;SDS011;53672;48.176;16.338;2023-08-24T09:13:30;10.57;;;7.30;;
66761;SDS011;53672;48.176;16.338;2023-08-24T09:18:35;11.70;;;7.80;;
66761;SDS011;53672;48.176;16.338;2023-08-24T09:23:37;11.73;;;7.80;;
66761;SDS011;53672;48.176;16.338;2023-08-24T09:28:39;12.20;;;7.45;;
66761;SDS011;53672;48.176;16.338;2023-08-24T09:33:42;13.45;;;7.80;;
66761;SDS011;53672;48.176;16.338;2023-08-24T09:38:46;10.67;;;7.50;;
66761;SDS011;53672;48.176;16.338;2023-08-24T09:43:48;14.15;;;7.55;;
66761;SDS011;53672;48.176;16.338;2023-08-24T09:48:53;9.07;;;7.07;;
66761;SDS011;53672;48.176;16.338;2023-08-24T09:53:55;10.43;;;7.57;;
66761;SDS011;53672;48.176;16.338;2023-08-24T09:58:59;9.87;;;7.57;;
66761;SDS011;53672;48.176;16.338;2023-08-24T10:04:00;12.55;;;8.32;;
66761;SDS011;53672;48.176;16.338;2023-08-24T10:09:06;12.15;;;7.65;;
66761;SDS011;53672;48.176;16.338;2023-08-24T10:14:10;10.33;;;8.43;;
66761;SDS011;53672;48.176;16.338;2023-08-24T10:19:15;12.10;;;7.75;;
66761;SDS011;53672;48.176;16.338;2023-08-24T10:24:18;9.63;;;7.63;;
66761;SDS011;53672;48.176;16.338;2023-08-24T10:29:21;8.73;;;7.13;;
66761;SDS011;53672;48.176;16.338;2023-08-24T10:34:21;11.10;;;8.05;;
66761;SDS011;53672;48.176;16.338;2023-08-24T10:39:26;9.47;;;8.30;;
66761;SDS011;53672;48.176;16.338;2023-08-24T10:44:34;11.80;;;7.07;;
66761;SDS011;53672;48.176;16.338;2023-08-24T10:49:35;10.80;;;7.57;;
66761;SDS011;53672;48.176;16.338;2023-08-24T10:54:40;10.82;;;8.27;;
66761;SDS011;53672;48.176;16.338;2023-08-24T10:59:43;10.57;;;7.70;;
66761;SDS011;53672;48.176;16.338;2023-08-24T11:10:10;9.57;;;7.45;;
66761;SDS011;53672;48.176;16.338;2023-08-24T11:15:12;11.87;;;7.87;;
66761;SDS011;53672;48.176;16.338;2023-08-24T11:20:29;13.00;;;8.23;;
66761;SDS011;53672;48.176;16.338;2023-08-24T11:25:30;12.30;;;8.57;;
66761;SDS011;53672;48.176;16.338;2023-08-24T11:30:36;10.07;;;8.13;;
66761;SDS011;53672;48.176;16.338;2023-08-24T11:35:38;9.63;;;8.10;;
66761;SDS011;53672;48.176;16.338;2023-08-24T11:40:39;9.67;;;8.07;;
66761;SDS011;53672;48.176;16.338;2023-08-24T11:45:41;9.40;;;7.80;;
66761;SDS011;53672;48.176;16.338;2023-08-24T11:50:41;9.55;;;7.95;;
66761;SDS011;53672;48.176;16.338;2023-08-24T11:55:42;10.73;;;8.17;;
66761;SDS011;53672;48.176;16.338;2023-08-24T12:00:45;10.47;;;8.80;;
66761;SDS011;53672;48.176;16.338;2023-08-24T12:05:46;9.55;;;8.40;;
66761;SDS011;53672;48.176;16.338;2023-08-24T12:10:46;9.77;;;8.30;;
66761;SDS011;53672;48.176;16.338;2023-08-24T12:15:48;9.97;;;8.97;;
66761;SDS011;53672;48.176;16.338;2023-08-24T12:20:49;10.00;;;8.95;;
66761;SDS011;53672;48.176;16.338;2023-08-24T12:25:53;8.77;;;7.70;;
66761;SDS011;53672;48.176;16.338;2023-08-24T12:30:55;9.13;;;8.13;;
66761;SDS011;53672;48.176;16.338;2023-08-24T12:35:56;9.32;;;7.78;;
66761;SDS011;53672;48.176;16.338;2023-08-24T12:40:57;9.75;;;7.95;;
66761;SDS011;53672;48.176;16.338;2023-08-24T12:45:59;9.57;;;8.30;;
66761;SDS011;53672;48.176;16.338;2023-08-24T12:51:00;10.07;;;7.97;;
66761;SDS011;53672;48.176;16.338;2023-08-24T12:56:00;8.33;;;7.47;;
66761;SDS011;53672;48.176;16.338;2023-08-24T13:01:02;10.30;;;7.87;;
66761;SDS011;53672;48.176;16.338;2023-08-24T13:06:03;9.57;;;8.63;;
66761;SDS011;53672;48.176;16.338;2023-08-24T13:11:03;10.67;;;8.23;;
66761;SDS011;53672;48.176;16.338;2023-08-24T13:16:05;10.67;;;7.67;;
66761;SDS011;53672;48.176;16.338;2023-08-24T13:21:05;11.15;;;8.27;;
66761;SDS011;53672;48.176;16.338;2023-08-24T13:26:12;8.90;;;7.60;;
66761;SDS011;53672;48.176;16.338;2023-08-24T13:31:18;9.13;;;7.50;;
66761;SDS011;53672;48.176;16.338;2023-08-24T13:36:19;8.60;;;7.40;;
66761;SDS011;53672;48.176;16.338;2023-08-24T13:41:19;10.95;;;7.32;;
66761;SDS011;53672;48.176;16.338;2023-08-24T13:46:22;11.98;;;7.78;;
66761;SDS011;53672;48.176;16.338;2023-08-24T13:51:22;11.10;;;7.20;;
66761;SDS011;53672;48.176;16.338;2023-08-24T13:56:23;11.10;;;7.03;;
66761;SDS011;53672;48.176;16.338;2023-08-24T14:01:25;10.97;;;6.70;;
66761;SDS011;53672;48.176;16.338;2023-08-24T14:06:27;9.95;;;7.00;;
66761;SDS011;53672;48.176;16.338;2023-08-24T14:11:28;9.23;;;6.60;;
66761;SDS011;53672;48.176;16.338;2023-08-24T14:16:30;11.40;;;6.77;;
66761;SDS011;53672;48.176;16.338;2023-08-24T14:21:30;10.03;;;6.70;;
66761;SDS011;53672;48.176;16.338;2023-08-24T14:26:31;9.20;;;6.93;;
66761;SDS011;53672;48.176;16.338;2023-08-24T14:31:33;9.40;;;6.83;;
66761;SDS011;53672;48.176;16.338;2023-08-24T14:36:33;10.07;;;7.57;;
66761;SDS011;53672;48.176;16.338;2023-08-24T14:41:34;10.13;;;6.75;;
66761;SDS011;53672;48.176;16.338;2023-08-24T14:46:35;9.50;;;6.85;;
66761;SDS011;53672;48.176;16.338;2023-08-24T14:51:36;8.83;;;6.20;;
66761;SDS011;53672;48.176;16.338;2023-08-24T14:56:36;10.93;;;7.03;;
66761;SDS011;53672;48.176;16.338;2023-08-24T15:01:38;9.93;;;6.67;;
66761;SDS011;53672;48.176;16.338;2023-08-24T15:06:39;9.13;;;6.90;;
66761;SDS011;53672;48.176;16.338;2023-08-24T15:11:39;12.73;;;6.93;;
66761;SDS011;53672;48.176;16.338;2023-08-24T15:16:41;8.87;;;7.23;;
66761;SDS011;53672;48.176;16.338;2023-08-24T15:21:42;11.90;;;7.80;;
66761;SDS011;53672;48.176;16.338;2023-08-24T15:26:42;13.07;;;7.07;;
66761;SDS011;53672;48.176;16.338;2023-08-24T15:31:44;9.60;;;7.30;;
66761;SDS011;53672;48.176;16.338;2023-08-24T15:36:45;10.80;;;7.20;;
66761;SDS011;53672;48.176;16.338;2023-08-24T15:41:45;12.97;;;6.80;;
66761;SDS011;53672;48.176;16.338;2023-08-24T15:46:47;13.23;;;7.53;;
66761;SDS011;53672;48.176;16.338;2023-08-24T15:51:47;11.80;;;7.47;;
66761;SDS011;53672;48.176;16.338;2023-08-24T15:56:48;11.83;;;7.60;;
66761;SDS011;53672;48.176;16.338;2023-08-24T16:01:50;17.50;;;7.60;;
66761;SDS011;53672;48.176;16.338;2023-08-24T16:06:51;13.17;;;7.20;;
66761;SDS011;53672;48.176;16.338;2023-08-24T16:11:51;10.45;;;6.93;;
66761;SDS011;53672;48.176;16.338;2023-08-24T16:16:53;10.63;;;7.57;;
66761;SDS011;53672;48.176;16.338;2023-08-24T16:21:53;10.65;;;7.68;;
66761;SDS011;53672;48.176;16.338;2023-08-24T16:26:54;11.63;;;7.47;;
66761;SDS011;53672;48.176;16.338;2023-08-24T16:31:56;12.50;;;7.73;;
66761;SDS011;53672;48.176;16.338;2023-08-24T16:36:56;12.07;;;7.50;;
66761;SDS011;53672;48.176;16.338;2023-08-24T16:41:57;10.90;;;7.10;;
66761;SDS011;53672;48.176;16.338;2023-08-24T16:46:59;10.97;;;8.13;;
66761;SDS011;53672;48.176;16.338;2023-08-24T16:51:59;9.70;;;7.72;;
66761;SDS011;53672;48.176;16.338;2023-08-24T16:57:00;12.30;;;7.70;;
66761;SDS011;53672;48.176;16.338;2023-08-24T17:02:02;13.47;;;7.97;;
66761;SDS011;53672;48.176;16.338;2023-08-24T17:07:02;11.07;;;7.53;;
66761;SDS011;53672;48.176;16.338;2023-08-24T17:12:03;10.03;;;7.97;;
66761;SDS011;53672;48.176;16.338;2023-08-24T17:17:06;11.75;;;8.05;;
66761;SDS011;53672;48.176;16.338;2023-08-24T17:22:06;11.47;;;7.90;;
66761;SDS011;53672;48.176;16.338;2023-08-24T17:27:07;12.13;;;7.97;;
66761;SDS011;53672;48.176;16.338;2023-08-24T17:32:09;10.18;;;7.47;;
66761;SDS011;53672;48.176;16.338;2023-08-24T17:37:09;11.80;;;7.43;;
66761;SDS011;53672;48.176;16.338;2023-08-24T17:42:10;10.40;;;7.30;;
66761;SDS011;53672;48.176;16.338;2023-08-24T17:47:12;9.90;;;7.40;;
66761;SDS011;53672;48.176;16.338;2023-08-24T17:52:13;12.43;;;8.15;;
66761;SDS011;53672;48.176;16.338;2023-08-24T17:57:14;13.37;;;7.23;;
66761;SDS011;53672;48.176;16.338;2023-08-24T18:02:16;14.87;;;7.37;;
66761;SDS011;53672;48.176;16.338;2023-08-24T18:07:16;10.88;;;7.80;;
66761;SDS011;53672;48.176;16.338;2023-08-24T18:12:17;12.60;;;7.77;;
66761;SDS011;53672;48.176;16.338;2023-08-24T18:17:20;10.70;;;7.65;;
66761;SDS011;53672;48.176;16.338;2023-08-24T18:22:21;10.27;;;7.82;;
66761;SDS011;53672;48.176;16.338;2023-08-24T18:27:23;14.47;;;8.40;;
66761;SDS011;53672;48.176;16.338;2023-08-24T18:32:25;12.00;;;8.18;;
66761;SDS011;53672;48.176;16.338;2023-08-24T18:37:26;10.93;;;8.03;;
66761;SDS011;53672;48.176;16.338;2023-08-24T18:42:27;11.73;;;7.53;;
66761;SDS011;53672;48.176;16.338;2023-08-24T18:47:30;12.18;;;8.30;;
66761;SDS011;53672;48.176;16.338;2023-08-24T18:52:31;13.53;;;8.20;;
66761;SDS011;53672;48.176;16.338;2023-08-24T18:57:32;11.98;;;7.63;;
66761;SDS011;53672;48.176;16.338;2023-08-24T19:02:35;13.03;;;8.33;;
66761;SDS011;53672;48.176;16.338;2023-08-24T19:07:36;9.93;;;7.60;;
66761;SDS011;53672;48.176;16.338;2023-08-24T19:12:37;14.20;;;7.90;;
66761;SDS011;53672;48.176;16.338;2023-08-24T19:17:39;12.60;;;8.10;;
66761;SDS011;53672;48.176;16.338;2023-08-24T19:22:41;14.83;;;8.63;;
66761;SDS011;53672;48.176;16.338;2023-08-24T19:27:44;13.15;;;8.00;;
66761;SDS011;53672;48.176;16.338;2023-08-24T19:32:47;13.77;;;8.15;;
66761;SDS011;53672;48.176;16.338;2023-08-24T19:37:48;20.70;;;10.40;;
66761;SDS011;53672;48.176;16.338;2023-08-24T19:42:49;11.23;;;8.30;;
66761;SDS011;53672;48.176;16.338;2023-08-24T19:47:52;13.03;;;8.57;;
66761;SDS011;53672;48.176;16.338;2023-08-24T19:52:53;12.98;;;8.65;;
66761;SDS011;53672;48.176;16.338;2023-08-24T19:57:53;14.47;;;9.80;;
66761;SDS011;53672;48.176;16.338;2023-08-24T20:02:56;13.68;;;8.65;;
66761;SDS011;53672;48.176;16.338;2023-08-24T20:07:57;13.17;;;8.23;;
66761;SDS011;53672;48.176;16.338;2023-08-24T20:12:59;13.48;;;8.77;;
66761;SDS011;53672;48.176;16.338;2023-08-24T20:18:01;13.27;;;8.48;;
66761;SDS011;53672;48.176;16.338;2023-08-24T20:23:03;11.95;;;8.45;;
66761;SDS011;53672;48.176;16.338;2023-08-24T20:28:04;12.65;;;8.23;;
66761;SDS011;53672;48.176;16.338;2023-08-24T20:33:06;11.93;;;8.13;;
66761;SDS011;53672;48.176;16.338;2023-08-24T20:38:07;12.95;;;7.38;;
66761;SDS011;53672;48.176;16.338;2023-08-24T20:43:08;17.50;;;8.07;;
66761;SDS011;53672;48.176;16.338;2023-08-24T20:48:09;10.68;;;7.65;;
66761;SDS011;53672;48.176;16.338;2023-08-24T20:53:10;16.30;;;7.73;;
66761;SDS011;53672;48.176;16.338;2023-08-24T20:58:11;12.90;;;7.77;;
66761;SDS011;53672;48.176;16.338;2023-08-24T21:03:13;11.18;;;7.30;;
66761;SDS011;53672;48.176;16.338;2023-08-24T21:08:14;13.20;;;8.07;;
66761;SDS011;53672;48.176;16.338;2023-08-24T21:13:14;10.67;;;7.53;;
66761;SDS011;53672;48.176;16.338;2023-08-24T21:18:16;11.73;;;7.37;;
66761;SDS011;53672;48.176;16.338;2023-08-24T21:23:16;10.80;;;7.50;;
66761;SDS011;53672;48.176;16.338;2023-08-24T21:28:17;10.68;;;7.90;;
66761;SDS011;53672;48.176;16.338;2023-08-24T21:33:19;10.85;;;7.78;;
66761;SDS011;53672;48.176;16.338;2023-08-24T21:38:19;12.97;;;7.73;;
66761;SDS011;53672;48.176;16.338;2023-08-24T21:43:20;13.80;;;8.27;;
66761;SDS011;53672;48.176;16.338;2023-08-24T21:48:22;10.45;;;8.13;;
66761;SDS011;53672;48.176;16.338;2023-08-24T21:53:22;11.23;;;8.07;;
66761;SDS011;53672;48.176;16.338;2023-08-24T21:58:23;10.33;;;7.90;;
66761;SDS011;53672;48.176;16.338;2023-08-24T22:03:25;17.30;;;7.73;;
66761;SDS011;53672;48.176;16.338;2023-08-24T22:08:25;13.40;;;8.18;;
66761;SDS011;53672;48.176;16.338;2023-08-24T22:13:26;11.70;;;8.53;;
66761;SDS011;53672;48.176;16.338;2023-08-24T22:18:28;11.18;;;8.05;;
66761;SDS011;53672;48.176;16.338;2023-08-24T22:23:29;14.60;;;8.60;;
66761;SDS011;53672;48.176;16.338;2023-08-24T22:28:29;13.73;;;8.82;;
66761;SDS011;53672;48.176;16.338;2023-08-24T22:33:31;12.07;;;8.38;;
66761;SDS011;53672;48.176;16.338;2023-08-24T22:38:31;11.23;;;8.70;;
66761;SDS011;53672;48.176;16.338;2023-08-24T22:43:32;15.27;;;8.63;;
66761;SDS011;53672;48.176;16.338;2023-08-24T22:48:34;13.27;;;9.17;;
66761;SDS011;53672;48.176;16.338;2023-08-24T22:53:34;13.10;;;9.10;;
66761;SDS011;53672;48.176;16.338;2023-08-24T22:58:34;14.07;;;9.47;;
66761;SDS011;53672;48.176;16.338;2023-08-24T23:03:36;16.30;;;9.40;;
66761;SDS011;53672;48.176;16.338;2023-08-24T23:08:37;13.77;;;9.55;;
66761;SDS011;53672;48.176;16.338;2023-08-24T23:13:37;14.17;;;9.87;;
66761;SDS011;53672;48.176;16.338;2023-08-24T23:18:39;13.70;;;9.60;;
66761;SDS011;53672;48.176;16.338;2023-08-24T23:23:40;15.93;;;9.52;;
66761;SDS011;53672;48.176;16.338;2023-08-24T23:28:40;14.43;;;10.03;;
66761;SDS011;53672;48.176;16.338;2023-08-24T23:33:42;14.90;;;9.67;;
66761;SDS011;53672;48.176;16.338;2023-08-24T23:38:42;14.20;;;9.63;;
66761;SDS011;53672;48.176;16.338;2023-08-24T23:43:43;12.27;;;9.48;;
66761;SDS011;53672;48.176;16.338;2023-08-24T23:48:45;15.77;;;9.93;;
66761;SDS011;53672;48.176;16.338;2023-08-24T23:53:45;15.83;;;9.93;;
66761;SDS011;53672;48.176;16.338;2023-08-24T23:58:46;15.80;;;9.60;;
